createdAt,value
2022-10-04T00:01:51.066Z,14.60
2022-10-04T00:04:26.656Z,9.90
2022-10-04T00:07:06.066Z,16.30
2022-10-04T00:09:38.502Z,9.20
2022-10-04T00:12:08.140Z,17.20
2022-10-04T00:14:47.348Z,9.60
2022-10-04T00:17:24.252Z,11.30
2022-10-04T00:19:55.399Z,23.10
2022-10-04T00:22:27.509Z,24.40
2022-10-04T00:25:37.432Z,25.80
2022-10-04T00:28:32.417Z,30.60
2022-10-04T00:31:15.611Z,39.20
2022-10-04T00:33:46.271Z,41.30
2022-10-04T00:36:52.182Z,47.80
2022-10-04T00:39:45.180Z,58.00
2022-10-04T00:42:40.324Z,67.30
2022-10-04T00:45:19.399Z,85.10
2022-10-04T00:48:21.373Z,95.40
2022-10-04T00:50:55.181Z,97.20
2022-10-04T00:53:40.410Z,99.90
2022-10-04T00:56:17.845Z,95.80
2022-10-04T00:59:07.790Z,99.90
2022-10-04T01:01:39.468Z,93.10
2022-10-04T01:04:26.040Z,97.50
2022-10-04T01:06:55.711Z,93.10
2022-10-04T01:09:25.120Z,97.40
2022-10-04T01:12:02.708Z,99.90
2022-10-04T01:14:41.546Z,93.50
2022-10-04T01:17:13.675Z,99.90
2022-10-04T01:19:53.271Z,99.90
2022-10-04T01:22:37.701Z,99.90
2022-10-04T01:25:07.170Z,99.90
2022-10-04T01:27:41.856Z,99.90
2022-10-04T01:30:13.532Z,99.90
2022-10-04T01:32:45.044Z,99.90
2022-10-04T01:35:17.111Z,99.90
2022-10-04T01:37:47.376Z,99.90
2022-10-04T01:40:16.516Z,99.90
2022-10-04T01:42:52.003Z,99.90
2022-10-04T01:45:30.166Z,99.90
2022-10-04T01:48:02.396Z,99.90
2022-10-04T01:50:37.124Z,99.90
2022-10-04T01:53:18.039Z,99.90
2022-10-04T01:55:50.384Z,99.90
2022-10-04T01:58:23.020Z,99.90
2022-10-04T02:00:55.734Z,99.90
2022-10-04T02:03:30.535Z,99.90
2022-10-04T02:06:02.796Z,99.90
2022-10-04T02:08:36.074Z,99.90
2022-10-04T02:11:06.912Z,99.90
2022-10-04T02:13:39.931Z,99.90
2022-10-04T02:16:12.992Z,99.90
2022-10-04T02:18:44.760Z,99.90
2022-10-04T02:21:16.002Z,99.90
2022-10-04T02:23:47.400Z,99.90
2022-10-04T02:26:16.154Z,99.90
2022-10-04T02:28:45.242Z,99.90
2022-10-04T02:31:31.696Z,99.90
2022-10-04T02:34:01.557Z,99.90
2022-10-04T02:36:31.400Z,99.90
2022-10-04T02:39:05.060Z,99.90
2022-10-04T02:41:37.119Z,99.90
2022-10-04T02:44:12.347Z,99.90
2022-10-04T02:46:48.495Z,99.90
2022-10-04T02:49:25.615Z,99.90
2022-10-04T02:51:59.695Z,99.90
2022-10-04T02:54:34.582Z,99.90
2022-10-04T02:57:03.487Z,99.90
2022-10-04T02:59:35.404Z,99.90
2022-10-04T03:02:05.437Z,99.90
2022-10-04T03:04:39.891Z,99.90
2022-10-04T03:07:10.947Z,99.90
2022-10-04T03:09:42.589Z,99.90
2022-10-04T03:12:14.476Z,99.90
2022-10-04T03:14:45.142Z,99.90
2022-10-04T03:17:16.427Z,99.90
2022-10-04T03:19:49.234Z,99.90
2022-10-04T03:22:19.586Z,99.90
2022-10-04T03:24:51.765Z,99.90
2022-10-04T03:27:25.550Z,99.90
2022-10-04T03:29:59.142Z,99.90
2022-10-04T03:32:30.855Z,99.90
2022-10-04T03:35:01.771Z,99.90
2022-10-04T03:37:33.451Z,99.90
2022-10-04T03:40:06.091Z,99.90
2022-10-04T03:42:38.694Z,99.90
2022-10-04T03:45:12.772Z,99.90
2022-10-04T03:47:45.820Z,99.90
2022-10-04T03:50:18.297Z,99.90
2022-10-04T03:52:51.798Z,99.90
2022-10-04T03:55:23.411Z,99.90
2022-10-04T03:57:53.602Z,99.90
2022-10-04T04:00:22.270Z,99.90
2022-10-04T04:02:53.907Z,1.00
2022-10-04T04:05:26.032Z,1.00
2022-10-04T04:08:05.547Z,1.00
2022-10-04T04:10:40.935Z,1.00
2022-10-04T04:13:21.480Z,1.00
2022-10-04T04:15:50.681Z,1.00
2022-10-04T04:18:23.512Z,1.00
2022-10-04T04:20:53.802Z,1.00
2022-10-04T04:23:27.935Z,1.00
2022-10-04T04:26:01.941Z,1.00
2022-10-04T04:28:37.086Z,1.00
2022-10-04T04:31:10.207Z,1.00
2022-10-04T04:33:47.461Z,1.00
2022-10-04T04:36:17.706Z,1.00
2022-10-04T04:39:00.482Z,1.00
2022-10-04T04:41:33.570Z,1.00
2022-10-04T04:44:03.167Z,1.00
2022-10-04T04:46:32.925Z,1.00
2022-10-04T04:49:05.979Z,1.00
2022-10-04T04:51:35.284Z,1.00
2022-10-04T04:54:08.114Z,1.00
2022-10-04T04:56:39.254Z,1.00
2022-10-04T04:59:09.635Z,1.00
2022-10-04T05:01:44.861Z,1.00
2022-10-04T05:04:22.109Z,28.50
2022-10-04T05:07:02.541Z,3.90
2022-10-04T05:09:33.883Z,1.00
2022-10-04T05:12:10.749Z,16.00
2022-10-04T05:14:42.112Z,1.00
2022-10-04T05:17:21.099Z,1.00
2022-10-04T05:19:50.274Z,1.00
2022-10-04T05:22:24.425Z,1.00
2022-10-04T05:24:56.625Z,1.00
2022-10-04T05:27:30.805Z,1.00
2022-10-04T05:30:06.564Z,1.00
2022-10-04T05:32:45.803Z,1.00
2022-10-04T05:35:18.820Z,1.00
2022-10-04T05:37:59.993Z,1.00
2022-10-04T05:40:42.972Z,1.00
2022-10-04T05:43:34.581Z,1.00
2022-10-04T05:46:18.842Z,1.00
2022-10-04T05:48:51.252Z,1.00
2022-10-04T05:51:21.865Z,1.00
2022-10-04T05:53:51.647Z,1.00
2022-10-04T05:56:57.020Z,1.00
2022-10-04T05:59:42.736Z,1.00
2022-10-04T06:02:25.535Z,1.00
2022-10-04T06:05:09.782Z,1.00
2022-10-04T06:07:43.475Z,1.00
2022-10-04T06:10:46.554Z,1.00
2022-10-04T06:13:30.486Z,99.90
2022-10-04T06:16:09.231Z,99.90
2022-10-04T06:19:06.047Z,99.90
2022-10-04T06:21:43.895Z,99.90
2022-10-04T06:24:18.824Z,99.90
2022-10-04T06:26:54.776Z,99.90
2022-10-04T06:29:28.112Z,99.90
2022-10-04T06:32:27.106Z,99.90
2022-10-04T06:35:19.241Z,99.90
2022-10-04T06:38:13.791Z,99.90
2022-10-04T06:41:14.607Z,99.90
2022-10-04T06:44:14.997Z,99.90
2022-10-04T06:46:49.780Z,99.90
2022-10-04T06:49:38.192Z,97.40
2022-10-04T06:52:26.757Z,81.70
2022-10-04T06:55:18.021Z,55.50
2022-10-04T06:58:12.615Z,23.70
2022-10-04T07:00:50.568Z,1.00
2022-10-04T07:03:26.710Z,1.00
2022-10-04T07:06:05.369Z,1.00
2022-10-04T07:08:41.689Z,1.00
2022-10-04T07:11:18.422Z,1.00
2022-10-04T07:13:56.859Z,1.00
2022-10-04T07:16:40.318Z,1.00
2022-10-04T07:19:35.272Z,1.00
2022-10-04T07:22:20.589Z,1.00
2022-10-04T07:25:09.392Z,1.00
2022-10-04T07:27:49.245Z,1.00
2022-10-04T07:30:19.448Z,1.00
2022-10-04T07:32:50.806Z,1.00
2022-10-04T07:35:27.092Z,1.00
2022-10-04T07:38:02.179Z,1.00
2022-10-04T07:40:36.744Z,1.00
2022-10-04T07:43:08.530Z,1.00
2022-10-04T07:45:40.951Z,1.00
2022-10-04T07:48:17.271Z,1.00
2022-10-04T07:50:51.062Z,1.00
2022-10-04T07:53:27.921Z,1.00
2022-10-04T07:56:02.851Z,1.00
2022-10-04T07:58:45.999Z,1.00
2022-10-04T08:01:28.687Z,1.00
2022-10-04T08:04:15.849Z,1.00
2022-10-04T08:06:57.223Z,1.00
2022-10-04T08:09:49.017Z,1.00
2022-10-04T08:12:26.391Z,1.00
2022-10-04T08:15:12.595Z,1.00
2022-10-04T08:17:55.777Z,1.00
2022-10-04T08:20:41.357Z,1.00
2022-10-04T08:23:28.123Z,1.00
